Time;durP1;ratioP1;P1;durP2;ratioP2;P2;SDS_P1;SDS_P2;PMS_P1;PMS_P2;Temp;Humidity;BMP_temperature;BMP_pressure;BME280_temperature;BME280_humidity;BME280_pressure;Samples;Min_cycle;Max_cycle;Signal;HPM_P1;HPM_P2
2021/01/16 00:00:29;;;;;;;18.30;6.80;;;2.10;99.90;;;;;;5041628;28;20021;-74
2021/01/16 00:02:55;;;;;;;14.52;6.90;;;2.10;99.90;;;;;;5020991;28;20022;-74
2021/01/16 00:05:23;;;;;;;19.27;6.70;;;2.10;99.90;;;;;;5040915;28;20029;-74
2021/01/16 00:08:00;;;;;;;12.27;4.73;;;2.10;99.90;;;;;;5054579;28;20024;-74
2021/01/16 00:10:26;;;;;;;14.77;6.07;;;2.10;99.90;;;;;;5048826;28;20022;-74
2021/01/16 00:12:55;;;;;;;21.55;8.07;;;2.10;99.90;;;;;;5035775;28;20029;-74
2021/01/16 00:15:21;;;;;;;15.30;6.45;;;2.20;99.90;;;;;;5046596;28;20030;-74
2021/01/16 00:17:57;;;;;;;17.52;6.55;;;2.20;99.90;;;;;;5034713;28;20032;-74
2021/01/16 00:20:23;;;;;;;17.83;5.55;;;2.20;99.90;;;;;;5038855;28;20052;-74
2021/01/16 00:22:49;;;;;;;17.35;6.00;;;2.20;99.90;;;;;;5034488;28;20022;-74
2021/01/16 00:25:15;;;;;;;14.02;6.55;;;2.20;99.90;;;;;;5041155;28;20025;-74
2021/01/16 00:27:40;;;;;;;14.75;6.47;;;2.20;99.90;;;;;;5052697;28;20025;-74
2021/01/16 00:30:08;;;;;;;17.15;6.15;;;2.20;99.90;;;;;;5053922;28;20569;-74
2021/01/16 00:32:36;;;;;;;12.52;5.90;;;2.20;99.90;;;;;;5017199;28;20026;-73
2021/01/16 00:35:06;;;;;;;12.57;5.60;;;2.20;99.90;;;;;;5048342;28;20025;-74
2021/01/16 00:37:32;;;;;;;15.13;6.18;;;2.20;99.90;;;;;;5016474;28;20183;-74
2021/01/16 00:39:57;;;;;;;16.15;5.05;;;2.20;99.90;;;;;;5053647;28;20060;-74
2021/01/16 00:42:23;;;;;;;17.75;5.57;;;2.20;99.90;;;;;;5036407;28;20030;-74
2021/01/16 00:44:48;;;;;;;15.85;5.97;;;2.20;99.90;;;;;;5018919;28;20088;-74
2021/01/16 00:47:14;;;;;;;19.75;6.03;;;2.10;99.90;;;;;;5036101;28;20419;-74
2021/01/16 00:49:39;;;;;;;13.73;5.30;;;2.10;99.90;;;;;;5052462;28;20027;-74
2021/01/16 00:52:05;;;;;;;13.40;5.68;;;2.10;99.90;;;;;;5035736;28;20048;-74
2021/01/16 00:54:30;;;;;;;14.82;5.65;;;2.10;99.90;;;;;;5030415;28;20033;-74
2021/01/16 00:56:55;;;;;;;14.77;5.80;;;2.20;99.90;;;;;;5034069;28;20029;-74
2021/01/16 00:59:21;;;;;;;14.70;6.15;;;2.20;99.90;;;;;;5034006;28;20021;-74
2021/01/16 01:01:46;;;;;;;12.35;5.00;;;2.20;99.90;;;;;;5046795;28;20032;-74
2021/01/16 01:04:12;;;;;;;14.25;5.18;;;2.20;99.90;;;;;;5041578;28;20108;-74
2021/01/16 01:06:38;;;;;;;14.43;5.80;;;2.20;99.90;;;;;;5052039;28;20490;-74
2021/01/16 01:09:04;;;;;;;13.27;5.75;;;2.20;99.90;;;;;;5052488;28;20025;-74
2021/01/16 01:11:29;;;;;;;12.95;5.70;;;2.20;99.90;;;;;;5046699;28;20075;-74
2021/01/16 01:13:55;;;;;;;12.65;4.82;;;2.20;99.90;;;;;;5016540;28;20029;-74
2021/01/16 01:16:20;;;;;;;15.30;5.68;;;2.20;99.90;;;;;;5032700;28;20040;-74
2021/01/16 01:18:46;;;;;;;14.95;5.20;;;2.20;99.90;;;;;;5035750;28;20048;-74
2021/01/16 01:21:11;;;;;;;11.68;5.40;;;2.20;99.90;;;;;;5052880;28;20410;-74
2021/01/16 01:23:37;;;;;;;14.52;5.35;;;2.20;99.90;;;;;;5053752;28;20021;-74
2021/01/16 01:26:03;;;;;;;16.35;5.43;;;2.20;99.90;;;;;;5019825;28;20472;-74
2021/01/16 01:28:28;;;;;;;12.63;5.93;;;2.20;99.90;;;;;;5016824;28;20033;-74
2021/01/16 01:30:54;;;;;;;11.70;5.45;;;2.20;99.90;;;;;;5028782;28;20021;-74
2021/01/16 01:33:19;;;;;;;13.88;5.97;;;2.20;99.90;;;;;;5038514;28;20039;-74
2021/01/16 01:35:45;;;;;;;12.07;5.07;;;2.20;99.90;;;;;;5039919;28;20037;-74
2021/01/16 01:38:16;;;;;;;11.02;4.88;;;2.20;99.90;;;;;;5049114;28;20079;-74
2021/01/16 01:40:42;;;;;;;13.57;5.35;;;2.20;99.90;;;;;;5048549;28;20025;-74
2021/01/16 01:43:07;;;;;;;12.63;4.70;;;2.20;99.90;;;;;;5034741;28;20036;-74
2021/01/16 01:45:33;;;;;;;16.13;5.72;;;2.20;99.90;;;;;;5036059;28;20034;-75
2021/01/16 01:47:58;;;;;;;9.98;4.28;;;2.20;99.90;;;;;;5047591;28;20374;-75
2021/01/16 01:50:24;;;;;;;15.60;5.30;;;2.20;99.90;;;;;;5054220;28;20025;-75
2021/01/16 01:52:50;;;;;;;11.20;4.38;;;2.20;99.90;;;;;;5039366;28;20025;-75
2021/01/16 01:55:16;;;;;;;12.38;5.78;;;2.10;99.90;;;;;;5040947;28;20026;-75
2021/01/16 01:57:49;;;;;;;15.10;4.47;;;2.20;99.90;;;;;;5033700;28;20021;-75
2021/01/16 02:00:16;;;;;;;14.52;5.05;;;2.10;99.90;;;;;;5046223;28;20067;-75
2021/01/16 02:02:43;;;;;;;11.00;5.35;;;2.20;99.90;;;;;;5035180;28;20028;-75
2021/01/16 02:05:11;;;;;;;10.90;4.90;;;2.10;99.90;;;;;;5021382;28;20104;-75
2021/01/16 02:07:39;;;;;;;11.65;5.03;;;2.10;99.90;;;;;;5015521;28;20105;-75
2021/01/16 02:10:09;;;;;;;11.23;4.65;;;2.10;99.90;;;;;;5019097;28;20394;-75
2021/01/16 02:12:36;;;;;;;12.02;5.00;;;2.20;99.90;;;;;;5053089;28;20479;-75
2021/01/16 02:15:07;;;;;;;13.68;5.68;;;2.20;99.90;;;;;;5049901;28;20013;-75
2021/01/16 02:17:38;;;;;;;14.68;4.80;;;2.10;99.90;;;;;;5033696;28;20028;-75
2021/01/16 02:20:06;;;;;;;10.90;4.90;;;2.20;99.90;;;;;;5047384;28;20120;-74
2021/01/16 02:22:47;;;;;;;11.52;4.75;;;2.20;99.90;;;;;;5048910;28;20109;-75
2021/01/16 02:25:15;;;;;;;10.00;4.32;;;2.20;99.90;;;;;;5042731;28;20025;-75
2021/01/16 02:28:05;;;;;;;10.75;4.45;;;2.20;99.90;;;;;;5057086;28;20090;-75
2021/01/16 02:30:33;;;;;;;10.98;5.10;;;2.20;99.90;;;;;;5050658;28;20106;-75
2021/01/16 02:33:02;;;;;;;15.05;5.18;;;2.20;99.90;;;;;;5040041;28;20059;-74
2021/01/16 02:35:29;;;;;;;16.30;5.28;;;2.20;99.90;;;;;;5053014;28;20034;-75
2021/01/16 02:38:06;;;;;;;11.02;4.85;;;2.10;99.90;;;;;;5038843;28;20029;-75
2021/01/16 02:40:41;;;;;;;11.65;4.47;;;2.20;99.90;;;;;;5056977;28;20526;-75
2021/01/16 02:43:24;;;;;;;12.25;5.03;;;2.20;99.90;;;;;;5056738;28;20475;-75
2021/01/16 02:46:01;;;;;;;11.32;4.93;;;2.20;99.90;;;;;;5050551;28;20033;-75
2021/01/16 02:48:50;;;;;;;11.52;4.70;;;2.20;99.90;;;;;;5046992;28;20056;-75
2021/01/16 02:51:21;;;;;;;;;;;2.20;99.90;;;;;;5057224;28;20056;-75
2021/01/16 02:53:50;;;;;;;13.10;5.20;;;2.20;99.90;;;;;;5038309;28;20287;-74
2021/01/16 02:56:17;;;;;;;10.93;4.75;;;2.20;99.90;;;;;;5034438;28;20438;-74
2021/01/16 02:58:43;;;;;;;12.15;4.55;;;2.20;99.90;;;;;;5018449;28;20594;-75
2021/01/16 03:01:08;;;;;;;14.93;4.47;;;2.20;99.90;;;;;;5037253;28;20030;-75
2021/01/16 03:03:38;;;;;;;11.07;5.15;;;2.20;99.90;;;;;;5038435;28;20025;-74
2021/01/16 03:06:04;;;;;;;14.88;5.22;;;2.20;99.90;;;;;;5029695;28;20022;-74
2021/01/16 03:08:29;;;;;;;10.02;4.35;;;2.20;99.90;;;;;;5036311;28;20029;-75
2021/01/16 03:10:56;;;;;;;12.38;4.85;;;2.20;99.90;;;;;;5037101;28;20071;-75
2021/01/16 03:13:25;;;;;;;12.38;5.13;;;2.20;99.90;;;;;;5038117;28;20033;-75
2021/01/16 03:15:52;;;;;;;15.45;4.93;;;2.10;99.90;;;;;;5042213;28;20429;-74
2021/01/16 03:18:23;;;;;;;11.07;5.32;;;2.20;99.90;;;;;;5055840;28;20108;-75
2021/01/16 03:20:49;;;;;;;13.10;5.10;;;2.20;99.90;;;;;;5038078;28;20040;-75
2021/01/16 03:23:15;;;;;;;12.57;4.57;;;2.20;99.90;;;;;;5037932;28;20107;-75
2021/01/16 03:25:44;;;;;;;12.75;5.05;;;2.20;99.90;;;;;;5055748;28;20163;-74
2021/01/16 03:28:09;;;;;;;11.77;4.72;;;2.20;99.90;;;;;;5037322;28;20028;-74
2021/01/16 03:30:35;;;;;;;10.93;4.40;;;2.20;99.90;;;;;;5055789;28;20029;-74
2021/01/16 03:33:00;;;;;;;14.10;5.68;;;2.20;99.90;;;;;;5050521;28;20017;-74
2021/01/16 03:35:27;;;;;;;9.68;4.63;;;2.20;99.90;;;;;;5037692;28;20041;-74
2021/01/16 03:37:55;;;;;;;12.13;4.70;;;2.20;99.90;;;;;;5034814;28;20030;-74
2021/01/16 03:40:21;;;;;;;13.00;4.43;;;2.20;99.90;;;;;;5034035;28;20024;-75
2021/01/16 03:42:47;;;;;;;12.35;4.68;;;2.20;99.90;;;;;;5050086;28;20503;-74
2021/01/16 03:45:19;;;;;;;11.88;4.78;;;2.20;99.90;;;;;;5035412;28;20048;-75
2021/01/16 03:47:45;;;;;;;11.20;4.78;;;2.20;99.90;;;;;;5035372;28;20488;-74
2021/01/16 03:50:11;;;;;;;14.95;4.60;;;2.20;99.90;;;;;;5035534;28;20026;-75
2021/01/16 03:52:38;;;;;;;12.57;4.30;;;2.20;99.90;;;;;;5039448;28;20055;-74
2021/01/16 03:55:09;;;;;;;11.65;4.80;;;2.20;99.90;;;;;;5017282;28;20067;-75
2021/01/16 03:57:35;;;;;;;12.20;5.03;;;2.20;99.90;;;;;;5053670;28;20025;-75
2021/01/16 04:00:00;;;;;;;12.27;5.40;;;2.20;99.90;;;;;;5037585;28;20426;-75
2021/01/16 04:02:26;;;;;;;11.30;5.05;;;2.20;99.90;;;;;;5031311;28;20166;-75
2021/01/16 04:04:51;;;;;;;13.43;5.05;;;2.20;99.90;;;;;;5021268;28;20033;-75
2021/01/16 04:07:17;;;;;;;13.23;5.97;;;2.10;99.90;;;;;;5020702;28;20025;-75
2021/01/16 04:09:45;;;;;;;13.18;4.25;;;2.10;99.90;;;;;;5046538;28;20033;-75
2021/01/16 04:12:11;;;;;;;11.90;4.35;;;2.10;99.90;;;;;;5054225;28;20103;-75
2021/01/16 04:14:37;;;;;;;9.48;3.65;;;2.10;99.90;;;;;;5053682;28;20047;-74
2021/01/16 04:17:10;;;;;;;11.68;4.95;;;2.20;99.90;;;;;;5035011;28;20021;-74
2021/01/16 04:19:48;;;;;;;11.48;4.43;;;2.20;99.90;;;;;;5052200;28;20025;-74
2021/01/16 04:22:14;;;;;;;12.63;4.10;;;2.20;99.90;;;;;;5040203;28;20032;-74
2021/01/16 04:24:40;;;;;;;12.93;4.68;;;2.20;99.90;;;;;;5037334;28;20033;-75
2021/01/16 04:27:05;;;;;;;12.98;4.68;;;2.20;99.90;;;;;;5035000;28;20021;-74
2021/01/16 04:29:31;;;;;;;10.07;4.35;;;2.20;99.90;;;;;;5035091;28;20037;-74
2021/01/16 04:31:56;;;;;;;9.90;3.60;;;2.20;99.90;;;;;;5036157;28;20083;-75
2021/01/16 04:34:22;;;;;;;11.00;4.55;;;2.20;99.90;;;;;;5046125;28;20391;-75
2021/01/16 04:36:47;;;;;;;9.23;4.05;;;2.20;99.90;;;;;;5035811;28;20025;-75
2021/01/16 04:39:15;;;;;;;9.02;4.00;;;2.30;99.90;;;;;;5049973;28;20469;-75
2021/01/16 04:41:45;;;;;;;9.05;3.75;;;2.30;99.90;;;;;;5052743;28;20017;-75
2021/01/16 04:44:12;;;;;;;9.77;3.67;;;2.30;99.90;;;;;;5040464;28;20024;-74
2021/01/16 04:46:38;;;;;;;7.65;3.70;;;2.40;99.90;;;;;;5036431;28;20497;-75
2021/01/16 04:49:06;;;;;;;8.88;3.38;;;2.40;99.90;;;;;;5036191;28;20111;-75
2021/01/16 04:51:43;;;;;;;8.77;3.53;;;2.40;99.90;;;;;;5054308;28;20025;-74
2021/01/16 04:54:16;;;;;;;9.90;4.13;;;2.40;99.90;;;;;;5022663;28;20071;-74
2021/01/16 04:56:42;;;;;;;11.85;3.97;;;2.40;99.90;;;;;;5054012;28;20033;-74
2021/01/16 04:59:08;;;;;;;8.90;3.75;;;2.40;99.90;;;;;;5054053;28;20096;-74
2021/01/16 05:01:33;;;;;;;9.10;3.40;;;2.40;99.90;;;;;;5022598;28;20432;-74
2021/01/16 05:03:59;;;;;;;9.30;4.13;;;2.40;99.90;;;;;;5047150;28;20112;-74
2021/01/16 05:06:27;;;;;;;9.80;4.40;;;2.40;99.90;;;;;;5049775;28;20064;-74
2021/01/16 05:08:54;;;;;;;8.07;4.03;;;2.40;99.90;;;;;;5034272;28;20025;-74
2021/01/16 05:11:26;;;;;;;10.05;3.95;;;2.40;99.90;;;;;;5034070;28;20029;-74
2021/01/16 05:14:09;;;;;;;11.20;3.75;;;2.30;99.90;;;;;;5049589;28;20044;-74
2021/01/16 05:16:43;;;;;;;7.20;3.53;;;2.30;99.90;;;;;;5019540;28;20021;-74
2021/01/16 05:19:15;;;;;;;9.48;3.88;;;2.30;99.90;;;;;;5034211;28;20406;-74
2021/01/16 05:21:42;;;;;;;9.05;4.07;;;2.30;99.90;;;;;;5036192;28;20044;-74
2021/01/16 05:24:07;;;;;;;10.48;4.53;;;2.30;99.90;;;;;;5050696;28;20497;-74
2021/01/16 05:26:48;;;;;;;10.75;4.40;;;2.20;99.90;;;;;;5019630;28;20120;-74
2021/01/16 05:29:14;;;;;;;13.88;5.07;;;2.30;99.90;;;;;;5038358;28;20033;-74
2021/01/16 05:31:51;;;;;;;10.77;3.88;;;2.20;99.90;;;;;;5036185;28;20055;-74
2021/01/16 05:34:17;;;;;;;13.73;4.97;;;2.20;99.90;;;;;;5047054;28;20139;-74
2021/01/16 05:36:45;;;;;;;9.63;3.78;;;2.30;99.90;;;;;;5037964;28;20476;-74
2021/01/16 05:39:12;;;;;;;10.60;4.07;;;2.30;99.90;;;;;;5035852;28;20112;-75
2021/01/16 05:41:38;;;;;;;10.43;4.53;;;2.20;99.90;;;;;;5046863;28;20060;-75
2021/01/16 05:44:05;;;;;;;9.68;4.75;;;2.20;99.90;;;;;;5052068;28;20040;-74
2021/01/16 05:46:31;;;;;;;10.25;4.80;;;2.20;99.90;;;;;;5051541;28;20483;-75
2021/01/16 05:48:56;;;;;;;10.60;4.57;;;2.20;99.90;;;;;;5033931;28;20045;-74
2021/01/16 05:51:22;;;;;;;8.18;4.03;;;2.20;99.90;;;;;;5046727;28;20021;-74
2021/01/16 05:53:49;;;;;;;10.35;4.07;;;2.20;99.90;;;;;;5056894;28;20108;-74
2021/01/16 05:56:16;;;;;;;11.75;4.70;;;2.20;99.90;;;;;;5057961;28;20029;-74
2021/01/16 05:58:43;;;;;;;12.38;4.55;;;2.20;99.90;;;;;;5040580;28;20151;-75
2021/01/16 06:01:22;;;;;;;10.27;4.30;;;3.00;99.90;;;;;;5037961;28;20017;-74
2021/01/16 06:03:49;;;;;;;;;;;2.10;99.90;;;;;;5053577;28;20017;-75
2021/01/16 06:06:15;;;;;;;11.73;4.32;;;2.20;99.90;;;;;;5039618;28;19913;-74
2021/01/16 06:08:51;;;;;;;10.45;4.13;;;2.20;99.90;;;;;;5041391;28;20446;-74
2021/01/16 06:11:18;;;;;;;12.77;4.60;;;2.20;99.90;;;;;;5029626;28;20376;-74
2021/01/16 06:13:47;;;;;;;12.57;5.10;;;2.20;99.90;;;;;;5024237;28;20025;-75
2021/01/16 06:16:15;;;;;;;11.05;4.25;;;2.20;99.90;;;;;;5039051;28;20061;-75
2021/01/16 06:18:47;;;;;;;11.87;4.20;;;2.10;99.90;;;;;;5039571;28;20017;-74
2021/01/16 06:21:29;;;;;;;8.80;4.28;;;2.10;99.90;;;;;;5030399;28;20283;-74
2021/01/16 06:24:00;;;;;;;8.85;4.18;;;2.10;99.90;;;;;;5020700;28;20026;-74
2021/01/16 06:26:27;;;;;;;9.50;3.63;;;2.10;99.90;;;;;;5037315;28;20148;-74
2021/01/16 06:28:58;;;;;;;6.80;3.30;;;2.10;99.90;;;;;;5051598;28;20040;-75
2021/01/16 06:31:29;;;;;;;9.38;3.88;;;2.10;99.90;;;;;;5046559;28;20029;-75
2021/01/16 06:34:06;;;;;;;8.43;3.88;;;2.10;99.90;;;;;;5040530;28;20037;-75
2021/01/16 06:36:37;;;;;;;7.70;3.10;;;2.10;99.90;;;;;;5037298;28;20021;-74
2021/01/16 06:39:07;;;;;;;8.75;3.70;;;2.10;99.90;;;;;;5019091;28;20029;-74
2021/01/16 06:41:35;;;;;;;11.25;3.22;;;2.10;99.90;;;;;;5030271;28;20064;-74
2021/01/16 06:44:02;;;;;;;8.32;3.65;;;2.10;99.90;;;;;;5051127;28;20147;-74
2021/01/16 06:46:47;;;;;;;7.28;2.50;;;2.10;99.90;;;;;;5038776;28;20483;-74
2021/01/16 06:49:25;;;;;;;8.52;3.28;;;2.10;99.90;;;;;;5053644;28;20033;-74
2021/01/16 06:51:52;;;;;;;8.18;2.65;;;2.10;99.90;;;;;;5041640;28;20491;-74
2021/01/16 06:54:41;;;;;;;6.75;2.70;;;2.10;99.90;;;;;;5054975;28;20071;-74
2021/01/16 06:57:08;;;;;;;7.10;2.40;;;2.10;99.90;;;;;;5028566;28;20098;-74
2021/01/16 06:59:35;;;;;;;6.93;2.33;;;2.20;99.90;;;;;;5018561;28;20037;-74
2021/01/16 07:02:19;;;;;;;5.93;2.10;;;2.30;97.30;;;;;;5032067;28;20021;-74
2021/01/16 07:04:54;;;;;;;8.32;2.83;;;2.30;95.90;;;;;;5017756;28;20112;-74
2021/01/16 07:07:34;;;;;;;5.07;2.15;;;2.30;94.20;;;;;;5018195;28;20029;-74
2021/01/16 07:10:04;;;;;;;6.32;2.22;;;2.30;94.20;;;;;;5035971;28;20028;-74
2021/01/16 07:12:29;;;;;;;9.30;2.40;;;2.30;93.20;;;;;;5039813;28;20091;-74
2021/01/16 07:14:55;;;;;;;7.22;2.63;;;2.30;94.40;;;;;;5042351;28;20022;-74
2021/01/16 07:17:23;;;;;;;7.93;2.70;;;2.30;92.40;;;;;;5018003;28;20095;-74
2021/01/16 07:19:50;;;;;;;12.00;3.47;;;2.20;93.50;;;;;;5018499;28;20026;-74
2021/01/16 07:22:16;;;;;;;9.30;2.83;;;2.20;93.60;;;;;;5020597;28;20025;-74
2021/01/16 07:24:44;;;;;;;9.70;3.17;;;2.30;93.00;;;;;;5043761;28;20030;-74
2021/01/16 07:27:13;;;;;;;8.25;2.60;;;2.30;92.10;;;;;;5036060;28;20471;-74
2021/01/16 07:29:40;;;;;;;6.60;2.75;;;2.30;92.00;;;;;;5036895;28;20033;-74
2021/01/16 07:32:14;;;;;;;9.40;3.22;;;2.30;92.10;;;;;;5019366;28;20022;-74
2021/01/16 07:34:47;;;;;;;7.80;3.15;;;2.30;92.20;;;;;;5026480;28;20033;-74
2021/01/16 07:37:14;;;;;;;9.88;3.55;;;2.20;93.20;;;;;;5035373;28;20060;-74
2021/01/16 07:39:43;;;;;;;8.75;3.40;;;2.20;93.20;;;;;;5034789;28;20078;-73
2021/01/16 07:42:14;;;;;;;9.15;3.78;;;2.20;92.10;;;;;;5036166;28;20383;-74
2021/01/16 07:44:45;;;;;;;9.45;3.55;;;2.20;92.20;;;;;;5035778;28;20104;-73
2021/01/16 07:47:22;;;;;;;9.27;3.42;;;2.20;91.50;;;;;;5055282;28;20387;-74
2021/01/16 07:49:57;;;;;;;10.65;3.60;;;2.20;92.00;;;;;;5035531;28;20071;-74
2021/01/16 07:52:28;;;;;;;10.55;4.03;;;2.10;91.60;;;;;;5051313;28;20484;-74
2021/01/16 07:55:20;;;;;;;12.63;4.00;;;2.10;92.70;;;;;;5017573;28;20037;-74
2021/01/16 07:57:50;;;;;;;9.98;3.42;;;2.10;92.70;;;;;;5015914;28;20116;-75
2021/01/16 08:00:18;;;;;;;10.65;4.47;;;2.00;92.60;;;;;;5054514;28;20017;-74
2021/01/16 08:03:12;;;;;;;8.63;3.38;;;2.00;92.80;;;;;;5033647;28;20127;-74
2021/01/16 08:05:46;;;;;;;15.73;4.32;;;2.00;92.60;;;;;;5054808;28;20032;-74
2021/01/16 08:08:21;;;;;;;11.52;4.40;;;2.00;93.20;;;;;;5055005;28;20021;-74
2021/01/16 08:10:52;;;;;;;10.30;4.05;;;2.10;93.20;;;;;;5047473;28;20108;-74
2021/01/16 08:13:21;;;;;;;10.57;4.10;;;2.00;92.20;;;;;;5054593;28;20021;-75
2021/01/16 08:15:49;;;;;;;10.63;4.15;;;2.10;92.60;;;;;;5047758;28;20029;-74
2021/01/16 08:18:19;;;;;;;13.57;4.35;;;2.10;93.00;;;;;;5035219;28;20376;-73
2021/01/16 08:20:46;;;;;;;12.63;4.07;;;2.10;92.40;;;;;;5039981;28;20025;-73
2021/01/16 08:23:22;;;;;;;13.23;5.30;;;2.10;92.70;;;;;;5034908;28;20379;-73
2021/01/16 08:25:48;;;;;;;10.98;4.45;;;2.10;93.00;;;;;;5034626;28;20025;-73
2021/01/16 08:28:26;;;;;;;12.40;5.20;;;2.10;93.20;;;;;;5034965;28;20028;-73
2021/01/16 08:30:51;;;;;;;15.73;4.60;;;2.00;92.80;;;;;;5036150;28;20447;-72
2021/01/16 08:33:17;;;;;;;12.90;4.88;;;2.10;93.20;;;;;;5050227;28;20009;-73
2021/01/16 08:35:48;;;;;;;11.73;4.85;;;2.10;93.20;;;;;;5054316;28;20036;-73
2021/01/16 08:38:16;;;;;;;13.23;5.38;;;2.10;92.40;;;;;;5029961;28;20017;-73
2021/01/16 08:41:03;;;;;;;13.27;4.35;;;2.20;92.80;;;;;;5026371;28;20025;-73
2021/01/16 08:43:39;;;;;;;13.40;4.75;;;2.20;92.70;;;;;;5035673;28;20360;-73
2021/01/16 08:46:15;;;;;;;11.98;4.25;;;2.10;92.50;;;;;;5016507;28;20520;-73
2021/01/16 08:48:56;;;;;;;12.27;5.15;;;2.20;92.70;;;;;;5043564;28;20039;-75
2021/01/16 08:51:31;;;;;;;12.10;4.50;;;2.20;92.30;;;;;;5034518;28;20028;-73
2021/01/16 08:54:28;;;;;;;12.60;5.05;;;2.20;91.90;;;;;;5035252;28;20042;-73
2021/01/16 08:57:17;;;;;;;15.32;5.10;;;2.20;92.50;;;;;;5000821;28;20500;-73
2021/01/16 08:59:42;;;;;;;13.80;5.30;;;2.20;93.00;;;;;;5034473;28;20032;-73
2021/01/16 09:02:09;;;;;;;12.68;5.10;;;2.20;93.10;;;;;;5022807;28;20025;-73
2021/01/16 09:04:37;;;;;;;12.73;5.43;;;2.30;91.70;;;;;;5053586;28;20039;-73
2021/01/16 09:07:22;;;;;;;12.75;4.30;;;2.40;91.90;;;;;;5043773;28;20030;-73
2021/01/16 09:10:03;;;;;;;15.65;5.07;;;2.40;92.10;;;;;;5036363;28;20017;-73
2021/01/16 09:12:31;;;;;;;13.35;4.82;;;2.40;91.50;;;;;;5046543;28;20017;-73
2021/01/16 09:15:19;;;;;;;13.25;5.32;;;2.40;91.60;;;;;;5054026;28;20667;-73
2021/01/16 09:18:06;;;;;;;10.95;4.78;;;2.40;91.10;;;;;;5034176;28;20043;-73
2021/01/16 09:20:33;;;;;;;13.55;5.20;;;2.40;90.90;;;;;;5041763;28;20479;-73
2021/01/16 09:23:19;;;;;;;13.68;5.13;;;2.50;91.70;;;;;;5019209;28;20032;-73
2021/01/16 09:26:04;;;;;;;16.40;5.93;;;2.50;92.30;;;;;;5033782;28;20045;-74
2021/01/16 09:28:52;;;;;;;14.48;5.97;;;2.50;91.50;;;;;;5015946;28;20029;-73
2021/01/16 09:31:21;;;;;;;15.32;5.45;;;2.60;92.00;;;;;;5016691;28;20017;-73
2021/01/16 09:33:49;;;;;;;19.52;6.70;;;2.60;91.40;;;;;;5033601;28;20034;-74
2021/01/16 09:39:19;;;;;;;14.77;5.65;;;2.60;90.60;;;;;;4993209;28;20050;-76
2021/01/16 09:41:47;;;;;;;18.55;6.32;;;2.60;89.90;;;;;;4994774;28;20452;-76
2021/01/16 09:44:14;;;;;;;19.50;6.80;;;2.60;89.00;;;;;;4993137;28;20440;-75
2021/01/16 09:46:41;;;;;;;16.40;6.20;;;2.70;90.20;;;;;;4994084;28;20022;-77
2021/01/16 09:49:10;;;;;;;16.45;5.63;;;2.70;89.60;;;;;;4994007;28;20046;-75
2021/01/16 09:51:37;;;;;;;16.55;6.32;;;2.70;90.80;;;;;;5028178;28;20022;-77
2021/01/16 09:54:12;;;;;;;15.73;6.00;;;2.70;90.40;;;;;;4995772;28;20022;-76
2021/01/16 09:56:50;;;;;;;16.50;6.57;;;2.70;90.30;;;;;;5022488;28;20031;-77
2021/01/16 09:59:24;;;;;;;15.75;5.57;;;2.70;90.30;;;;;;4994339;28;20023;-77
2021/01/16 10:02:09;;;;;;;16.17;6.25;;;2.80;90.80;;;;;;4994097;28;20023;-76
2021/01/16 10:04:42;;;;;;;22.48;7.10;;;2.80;90.00;;;;;;4993871;28;20029;-76
2021/01/16 10:07:15;;;;;;;14.65;6.10;;;2.80;90.00;;;;;;4993552;28;20076;-76
2021/01/16 10:09:46;;;;;;;21.33;6.65;;;2.90;90.40;;;;;;5025420;28;20520;-76
2021/01/16 10:12:48;;;;;;;14.40;5.70;;;2.90;89.10;;;;;;4989289;28;20034;-75
2021/01/16 10:15:18;;;;;;;17.52;6.93;;;2.90;89.20;;;;;;4972750;28;20116;-76
2021/01/16 10:17:54;;;;;;;15.77;6.05;;;2.90;89.80;;;;;;4984201;28;20066;-76
2021/01/16 10:20:20;;;;;;;16.70;6.18;;;2.90;90.10;;;;;;4994012;28;20023;-75
2021/01/16 10:22:53;;;;;;;17.77;6.80;;;2.90;91.20;;;;;;4993619;28;20370;-75
2021/01/16 10:25:20;;;;;;;13.60;5.65;;;2.90;89.80;;;;;;4993545;28;20037;-76
2021/01/16 10:27:53;;;;;;;16.38;6.72;;;2.90;90.40;;;;;;5025268;28;20023;-76
2021/01/16 10:30:21;;;;;;;12.73;4.82;;;2.90;90.20;;;;;;4994181;28;20072;-75
2021/01/16 10:32:47;;;;;;;17.13;5.43;;;2.90;89.50;;;;;;4993343;28;20038;-75
2021/01/16 10:35:33;;;;;;;16.08;5.72;;;2.80;88.50;;;;;;5011528;28;20027;-75
2021/01/16 10:38:00;;;;;;;14.82;5.82;;;2.80;88.70;;;;;;4994817;28;20030;-75
2021/01/16 10:40:29;;;;;;;14.98;4.97;;;2.80;87.60;;;;;;4999379;28;20033;-75
2021/01/16 10:42:57;;;;;;;19.60;6.07;;;2.80;88.60;;;;;;5016947;28;20032;-74
2021/01/16 10:45:28;;;;;;;16.23;4.97;;;2.70;90.00;;;;;;5017040;28;20468;-79
2021/01/16 10:47:55;;;;;;;15.93;5.82;;;2.70;90.30;;;;;;5018382;28;20033;-79
2021/01/16 10:50:29;;;;;;;15.25;5.50;;;2.70;90.10;;;;;;4999928;28;20025;-77
2021/01/16 10:53:03;;;;;;;15.57;5.78;;;2.80;90.00;;;;;;5016640;28;20053;-74
2021/01/16 10:55:53;;;;;;;15.70;5.68;;;2.80;89.90;;;;;;5016430;28;20499;-73
2021/01/16 10:58:23;;;;;;;16.55;6.18;;;2.80;90.10;;;;;;5016987;28;20080;-74
2021/01/16 11:00:53;;;;;;;13.32;5.47;;;2.70;88.40;;;;;;5017081;28;20435;-75
2021/01/16 11:03:19;;;;;;;15.85;6.28;;;2.80;90.30;;;;;;5014961;28;20022;-74
2021/01/16 11:05:49;;;;;;;14.90;6.13;;;2.80;90.80;;;;;;5017079;28;20034;-77
2021/01/16 11:08:25;;;;;;;17.88;5.85;;;2.80;90.50;;;;;;4999018;28;20026;-74
2021/01/16 11:10:50;;;;;;;14.27;6.28;;;2.80;90.40;;;;;;5016903;28;20117;-74
2021/01/16 11:13:30;;;;;;;15.13;6.15;;;2.80;90.20;;;;;;4998730;28;20140;-73
2021/01/16 11:16:17;;;;;;;14.02;5.80;;;2.70;90.40;;;;;;4998843;28;20040;-74
2021/01/16 11:18:43;;;;;;;18.40;6.20;;;2.70;91.10;;;;;;5016216;28;20053;-77
2021/01/16 11:21:11;;;;;;;13.80;6.45;;;2.80;91.40;;;;;;5015629;28;20037;-76
2021/01/16 11:23:43;;;;;;;18.45;5.68;;;2.80;91.90;;;;;;5016712;28;20022;-77
2021/01/16 11:26:10;;;;;;;18.30;6.72;;;2.80;91.60;;;;;;4999101;28;20034;-76
2021/01/16 11:28:54;;;;;;;14.40;5.65;;;2.80;91.20;;;;;;4998710;28;20033;-77
2021/01/16 11:31:32;;;;;;;13.07;5.35;;;2.90;90.60;;;;;;5016137;28;20033;-76
2021/01/16 11:34:08;;;;;;;16.15;6.20;;;2.80;91.80;;;;;;4998784;28;20049;-77
2021/01/16 11:36:53;;;;;;;15.68;5.35;;;2.90;90.60;;;;;;5016531;28;20030;-74
2021/01/16 11:39:51;;;;;;;13.65;5.70;;;2.80;90.70;;;;;;4998632;28;20026;-74
2021/01/16 11:42:21;;;;;;;12.95;5.10;;;2.80;90.80;;;;;;4992877;28;20026;-75
2021/01/16 11:45:00;;;;;;;;;;;2.70;90.00;;;;;;5016499;28;20018;-74
2021/01/16 11:47:27;;;;;;;14.15;5.97;;;2.70;90.80;;;;;;5015516;28;19910;-75
2021/01/16 11:49:54;;;;;;;12.82;4.97;;;2.70;91.10;;;;;;5016094;28;20025;-74
2021/01/16 11:52:21;;;;;;;15.90;4.90;;;2.70;90.80;;;;;;5015743;28;20392;-74
2021/01/16 11:54:48;;;;;;;10.77;4.95;;;2.70;90.40;;;;;;4998405;28;20033;-74
2021/01/16 11:57:18;;;;;;;8.38;3.92;;;2.70;89.40;;;;;;4996748;28;20021;-74
2021/01/16 11:59:44;;;;;;;13.25;4.53;;;2.70;90.20;;;;;;4998293;28;20033;-73
2021/01/16 12:02:14;;;;;;;11.50;4.22;;;2.60;89.40;;;;;;4997497;28;20030;-74
2021/01/16 12:04:45;;;;;;;9.55;3.38;;;2.70;90.10;;;;;;5016337;28;20080;-74
2021/01/16 12:07:17;;;;;;;9.30;3.83;;;2.60;89.30;;;;;;4998319;28;20512;-74
2021/01/16 12:09:44;;;;;;;11.25;4.00;;;2.70;89.10;;;;;;4997808;28;20403;-72
2021/01/16 12:12:13;;;;;;;9.52;4.55;;;2.60;88.00;;;;;;5015499;28;20431;-74
2021/01/16 12:14:40;;;;;;;7.05;3.05;;;2.60;87.30;;;;;;5015685;28;20032;-74
2021/01/16 12:17:13;;;;;;;8.77;3.67;;;2.60;87.30;;;;;;5014977;28;20036;-74
2021/01/16 12:19:39;;;;;;;8.85;3.40;;;2.60;86.70;;;;;;5015367;28;20104;-74
2021/01/16 12:22:07;;;;;;;10.10;3.22;;;2.60;86.40;;;;;;4997757;28;20083;-73
2021/01/16 12:24:34;;;;;;;8.10;3.22;;;2.60;86.30;;;;;;5014566;28;20112;-73
2021/01/16 12:27:02;;;;;;;13.23;3.60;;;2.60;85.50;;;;;;5015195;28;20045;-74
2021/01/16 12:29:41;;;;;;;7.90;2.20;;;2.60;85.40;;;;;;4997354;28;20022;-73
2021/01/16 12:32:12;;;;;;;6.97;3.30;;;2.60;85.10;;;;;;4997193;28;20030;-74
2021/01/16 12:34:54;;;;;;;8.15;2.55;;;2.60;84.20;;;;;;4997415;28;20404;-74
2021/01/16 12:37:31;;;;;;;5.28;1.70;;;2.60;83.80;;;;;;5014413;28;20026;-74
2021/01/16 12:39:58;;;;;;;6.38;2.10;;;2.60;84.30;;;;;;5014316;28;20030;-73
2021/01/16 12:42:24;;;;;;;7.38;2.78;;;2.60;82.30;;;;;;5014715;28;20472;-73
2021/01/16 12:44:51;;;;;;;6.22;2.03;;;2.50;82.50;;;;;;5014631;28;20033;-76
2021/01/16 12:47:21;;;;;;;7.05;2.55;;;2.50;82.40;;;;;;4996820;28;20030;-74
2021/01/16 12:49:52;;;;;;;5.97;2.25;;;2.50;83.80;;;;;;4997083;28;20452;-74
2021/01/16 12:52:25;;;;;;;6.65;2.63;;;2.60;83.40;;;;;;4997027;28;20030;-74
2021/01/16 12:55:24;;;;;;;8.73;2.80;;;2.60;82.90;;;;;;5016147;28;20030;-74
2021/01/16 12:57:52;;;;;;;6.90;1.98;;;3.00;83.50;;;;;;5015483;28;20036;-74
2021/01/16 13:00:19;;;;;;;6.72;2.03;;;2.60;82.80;;;;;;4997636;28;20065;-73
2021/01/16 13:02:53;;;;;;;7.18;2.80;;;2.60;81.80;;;;;;5014336;28;20030;-74
2021/01/16 13:05:19;;;;;;;8.38;2.70;;;2.60;83.30;;;;;;4997566;28;20034;-74
2021/01/16 13:07:45;;;;;;;7.47;2.50;;;2.60;81.80;;;;;;5014213;28;20030;-75
2021/01/16 13:10:24;;;;;;;10.43;2.67;;;2.50;80.70;;;;;;5015149;28;20068;-76